createdAt,value
2018-03-17T00:00:36.541Z,101072.28
2018-03-17T00:03:04.060Z,101072.23
2018-03-17T00:05:31.646Z,101062.59
2018-03-17T00:07:59.156Z,101066.83
2018-03-17T00:10:26.691Z,101070.86
2018-03-17T00:12:54.238Z,101069.06
2018-03-17T00:15:21.758Z,101064.25
2018-03-17T00:17:49.317Z,101061.56
2018-03-17T00:20:16.888Z,101072.41
2018-03-17T00:22:44.398Z,101068.42
2018-03-17T00:25:11.922Z,101077.78
2018-03-17T00:27:39.449Z,101080.27
2018-03-17T00:30:06.961Z,101073.84
2018-03-17T00:32:34.482Z,101077.58
2018-03-17T00:35:02.005Z,101077.09
2018-03-17T00:37:29.534Z,101083.66
2018-03-17T00:39:57.060Z,101079.99
2018-03-17T00:42:24.582Z,101090.05
2018-03-17T00:44:52.182Z,101088.86
2018-03-17T00:47:19.696Z,101082.77
2018-03-17T00:49:47.305Z,101085.13
2018-03-17T00:52:14.904Z,101082.72
2018-03-17T00:54:42.412Z,101073.57
2018-03-17T00:57:09.946Z,101086.71
2018-03-17T00:59:37.541Z,101084.75
2018-03-17T01:02:05.105Z,101083.36
2018-03-17T01:04:32.631Z,101085.19
2018-03-17T01:07:00.156Z,101075.05
2018-03-17T01:09:27.798Z,101085.25
2018-03-17T01:11:55.308Z,101085.88
2018-03-17T01:14:22.829Z,101087.24
2018-03-17T01:16:50.346Z,101088.41
2018-03-17T01:19:17.873Z,101089.89
2018-03-17T01:21:45.394Z,101102.72
2018-03-17T01:24:12.925Z,101085.20
2018-03-17T01:26:40.495Z,101083.14
2018-03-17T01:29:08.030Z,101077.81
2018-03-17T01:31:35.593Z,101068.14
2018-03-17T01:34:03.111Z,101058.21
2018-03-17T01:36:30.633Z,101057.77
2018-03-17T01:38:58.194Z,101069.45
2018-03-17T01:41:25.712Z,101072.20
2018-03-17T01:43:53.305Z,101053.17
2018-03-17T01:46:20.819Z,101073.12
2018-03-17T01:48:48.435Z,101066.67
2018-03-17T01:51:15.966Z,101061.16
2018-03-17T01:53:43.562Z,101071.23
2018-03-17T01:56:11.074Z,101053.17
2018-03-17T01:58:38.628Z,101055.72
2018-03-17T02:01:06.164Z,101054.33
2018-03-17T02:03:33.803Z,101044.98
2018-03-17T02:06:01.326Z,101043.23
2018-03-17T02:08:28.874Z,101045.05
2018-03-17T02:10:56.385Z,101053.84
2018-03-17T02:13:23.901Z,101066.94
2018-03-17T02:15:51.417Z,101046.66
2018-03-17T02:18:18.952Z,101047.98
2018-03-17T02:20:46.464Z,101049.78
2018-03-17T02:23:14.044Z,101052.86
2018-03-17T02:25:41.560Z,101063.95
2018-03-17T02:28:09.193Z,101053.89
2018-03-17T02:30:36.725Z,101078.38
2018-03-17T02:33:04.321Z,101079.75
2018-03-17T02:35:31.841Z,101068.17
2018-03-17T02:37:59.403Z,101075.30
2018-03-17T02:40:26.999Z,101077.78
2018-03-17T02:42:54.522Z,101068.17
2018-03-17T02:45:22.057Z,101079.54
2018-03-17T02:47:49.588Z,101071.61
2018-03-17T02:50:17.234Z,101076.55
2018-03-17T02:52:44.762Z,101086.55
2018-03-17T02:55:12.319Z,101075.47
2018-03-17T02:57:39.921Z,101082.17
2018-03-17T03:00:07.441Z,101087.07
2018-03-17T03:02:34.957Z,101099.44
2018-03-17T03:05:02.485Z,101103.50
2018-03-17T03:07:30.023Z,101097.48
2018-03-17T03:09:57.533Z,101103.72
2018-03-17T03:12:25.047Z,101109.34
2018-03-17T03:14:52.573Z,101106.42
2018-03-17T03:17:20.093Z,101111.23
2018-03-17T03:19:47.619Z,101110.34
2018-03-17T03:22:15.148Z,101110.41
2018-03-17T03:24:42.674Z,101106.55
2018-03-17T03:27:10.182Z,101113.30
2018-03-17T03:29:37.710Z,101113.19
2018-03-17T03:32:05.218Z,101107.45
2018-03-17T03:34:32.803Z,101103.81
2018-03-17T03:37:00.334Z,101114.57
2018-03-17T03:39:27.927Z,101112.72
2018-03-17T03:41:55.538Z,101113.45
2018-03-17T03:44:23.147Z,101118.14
2018-03-17T03:46:50.679Z,101116.82
2018-03-17T03:49:18.188Z,101140.18
2018-03-17T03:51:45.712Z,101129.38
2018-03-17T03:54:13.239Z,101126.72
2018-03-17T03:56:40.762Z,101134.19
2018-03-17T03:59:08.403Z,101115.88
2018-03-17T04:01:35.936Z,101148.17
2018-03-17T04:04:03.463Z,101128.59
2018-03-17T04:06:30.990Z,101144.72
2018-03-17T04:08:58.513Z,101145.63
2018-03-17T04:11:26.033Z,101139.31
2018-03-17T04:13:53.558Z,101133.47
2018-03-17T04:16:21.072Z,101119.98
2018-03-17T04:18:48.592Z,101131.56
2018-03-17T04:21:16.104Z,101138.48
2018-03-17T04:23:43.643Z,101115.77
2018-03-17T04:26:11.165Z,101126.58
2018-03-17T04:28:38.701Z,101134.16
2018-03-17T04:31:06.231Z,101138.02
2018-03-17T04:33:33.767Z,101147.78
2018-03-17T04:36:01.298Z,101155.03
2018-03-17T04:38:28.850Z,101142.55
2018-03-17T04:40:56.458Z,101154.08
2018-03-17T04:43:24.017Z,101147.23
2018-03-17T04:45:51.633Z,101152.28
2018-03-17T04:48:19.149Z,101151.31
2018-03-17T04:50:46.758Z,101151.26
2018-03-17T04:53:14.421Z,101162.21
2018-03-17T04:55:41.947Z,101153.24
2018-03-17T04:58:09.472Z,101161.80
2018-03-17T05:00:36.999Z,101153.20
2018-03-17T05:03:04.519Z,101142.88
2018-03-17T05:05:32.042Z,101148.41
2018-03-17T05:07:59.590Z,101151.81
2018-03-17T05:10:27.138Z,101155.23
2018-03-17T05:12:54.680Z,101166.90
2018-03-17T05:15:22.198Z,101162.39
2018-03-17T05:17:49.800Z,101160.30
2018-03-17T05:20:17.393Z,101149.45
2018-03-17T05:22:44.923Z,101159.75
2018-03-17T05:25:12.466Z,101170.23
2018-03-17T05:27:39.996Z,101168.92
2018-03-17T05:30:07.537Z,101163.17
2018-03-17T05:32:35.177Z,101162.94
2018-03-17T05:35:02.707Z,101162.83
2018-03-17T05:37:30.234Z,101164.92
2018-03-17T05:39:57.778Z,101173.38
2018-03-17T05:42:25.325Z,101182.67
2018-03-17T05:44:52.843Z,101167.65
2018-03-17T05:47:20.356Z,101176.63
2018-03-17T05:49:47.888Z,101184.92
2018-03-17T05:52:15.433Z,101174.61
2018-03-17T05:54:42.933Z,101190.96
2018-03-17T05:57:10.444Z,101197.48
2018-03-17T05:59:37.952Z,101182.99
2018-03-17T06:02:05.591Z,101189.81
2018-03-17T06:04:33.138Z,101201.80
2018-03-17T06:07:00.647Z,101194.98
2018-03-17T06:09:28.164Z,101190.77
2018-03-17T06:11:55.697Z,101183.88
2018-03-17T06:14:23.217Z,101204.48
2018-03-17T06:16:50.733Z,101201.97
2018-03-17T06:19:18.308Z,101203.88
2018-03-17T06:21:45.862Z,101214.05
2018-03-17T06:24:13.393Z,101213.59
2018-03-17T06:26:40.918Z,101207.80
2018-03-17T06:29:08.429Z,101202.94
2018-03-17T06:31:36.093Z,101222.84
2018-03-17T06:34:03.600Z,101224.80
2018-03-17T06:36:31.124Z,101219.80
2018-03-17T06:38:58.633Z,101218.94
2018-03-17T06:41:26.170Z,101233.44
2018-03-17T06:43:53.793Z,101228.91
2018-03-17T06:46:21.315Z,101210.70
2018-03-17T06:48:48.849Z,101228.03
2018-03-17T06:51:16.468Z,101233.16
2018-03-17T06:53:44.014Z,101242.53
2018-03-17T06:56:11.542Z,101230.53
2018-03-17T06:58:39.059Z,101252.98
2018-03-17T07:01:06.581Z,101252.48
2018-03-17T07:03:34.192Z,101248.02
2018-03-17T07:06:01.714Z,101230.88
2018-03-17T07:08:29.226Z,101221.91
2018-03-17T07:10:56.756Z,101233.45
2018-03-17T07:13:24.272Z,101233.16
2018-03-17T07:15:51.866Z,101232.27
2018-03-17T07:18:19.389Z,101238.06
2018-03-17T07:20:46.911Z,101244.44
2018-03-17T07:23:14.437Z,101231.13
2018-03-17T07:25:42.005Z,101227.23
2018-03-17T07:28:09.573Z,101236.52
2018-03-17T07:30:37.092Z,101233.56
2018-03-17T07:33:04.603Z,101241.51
2018-03-17T07:35:32.121Z,101227.08
2018-03-17T07:37:59.712Z,101236.72
2018-03-17T07:40:27.240Z,101247.52
2018-03-17T07:42:54.766Z,101239.84
2018-03-17T07:45:22.330Z,101226.91
2018-03-17T07:47:49.962Z,101249.98
2018-03-17T07:50:17.483Z,101226.91
2018-03-17T07:52:45.081Z,101237.30
2018-03-17T07:55:12.601Z,101234.01
2018-03-17T07:57:40.201Z,101229.34
2018-03-17T08:00:07.725Z,101230.13
2018-03-17T08:02:35.246Z,101222.42
2018-03-17T08:05:02.779Z,101226.80
2018-03-17T08:07:30.302Z,101228.16
2018-03-17T08:09:57.818Z,101218.47
2018-03-17T08:12:25.358Z,101224.89
2018-03-17T08:14:52.877Z,101225.69
2018-03-17T08:17:20.476Z,101218.55
2018-03-17T08:19:48.007Z,101221.73
2018-03-17T08:22:15.517Z,101223.80
2018-03-17T08:24:43.037Z,101214.61
2018-03-17T08:27:10.582Z,101209.75
2018-03-17T08:29:38.098Z,101209.36
2018-03-17T08:32:05.630Z,101217.26
2018-03-17T08:34:33.172Z,101219.16
2018-03-17T08:37:00.698Z,101220.80
2018-03-17T08:39:28.284Z,101228.41
2018-03-17T08:41:55.772Z,101235.53
2018-03-17T08:44:23.293Z,101239.58
2018-03-17T08:46:50.809Z,101230.00
2018-03-17T08:49:18.330Z,101255.38
2018-03-17T08:51:45.904Z,101228.17
2018-03-17T08:54:13.433Z,101224.76
2018-03-17T08:56:40.951Z,101225.52
2018-03-17T08:59:08.584Z,101223.65
2018-03-17T09:01:36.098Z,101227.44
2018-03-17T09:04:03.627Z,101217.60
2018-03-17T09:06:31.264Z,101229.06
2018-03-17T09:08:58.790Z,101219.32
2018-03-17T09:11:26.306Z,101219.31
2018-03-17T09:13:53.825Z,101205.31
2018-03-17T09:16:21.371Z,101191.55
2018-03-17T09:18:48.886Z,101189.92
2018-03-17T09:21:16.400Z,101190.56
2018-03-17T09:23:43.908Z,101180.45
2018-03-17T09:26:11.425Z,101184.62
2018-03-17T09:28:38.940Z,101199.86
2018-03-17T09:31:06.551Z,101189.77
2018-03-17T09:33:34.114Z,101188.92
2018-03-17T09:36:01.641Z,101180.98
2018-03-17T09:38:29.153Z,101184.87
2018-03-17T09:40:56.782Z,101187.73
2018-03-17T09:43:24.360Z,101181.99
2018-03-17T09:45:51.918Z,101196.05
2018-03-17T09:48:19.429Z,101193.02
2018-03-17T09:50:46.963Z,101185.83
2018-03-17T09:53:14.518Z,101179.74
2018-03-17T09:55:42.053Z,101187.73
2018-03-17T09:58:09.588Z,101197.31
2018-03-17T10:00:37.109Z,101215.92
2018-03-17T10:03:04.629Z,101177.70
2018-03-17T10:05:32.166Z,101188.91
2018-03-17T10:07:59.772Z,101187.13
2018-03-17T10:10:27.276Z,101197.13
2018-03-17T10:12:54.833Z,101180.16
2018-03-17T10:15:23.351Z,101162.50
2018-03-17T10:17:50.882Z,101193.73
2018-03-17T10:20:18.397Z,101186.17
2018-03-17T10:22:45.931Z,101202.56
2018-03-17T10:25:13.480Z,101181.69
2018-03-17T10:27:41.051Z,101185.20
2018-03-17T10:30:08.607Z,101171.38
2018-03-17T10:32:36.166Z,101174.80
2018-03-17T10:35:03.688Z,101162.08
2018-03-17T10:37:31.224Z,101170.81
2018-03-17T10:39:58.761Z,101156.80
2018-03-17T10:42:26.280Z,101154.53
2018-03-17T10:44:53.794Z,101151.98
2018-03-17T10:47:21.304Z,101172.98
2018-03-17T10:49:48.818Z,101167.97
2018-03-17T10:52:16.339Z,101153.02
2018-03-17T10:54:43.852Z,101157.17
2018-03-17T10:57:11.386Z,101150.02
2018-03-17T10:59:38.909Z,101149.89
2018-03-17T11:02:06.418Z,101142.84
2018-03-17T11:04:34.038Z,101157.27
2018-03-17T11:07:02.422Z,101146.90
2018-03-17T11:09:29.944Z,101151.78
2018-03-17T11:11:57.480Z,101157.44
2018-03-17T11:14:25.039Z,101178.47
2018-03-17T11:16:52.710Z,101152.45
2018-03-17T11:19:20.224Z,101154.76
2018-03-17T11:21:47.737Z,101152.36
2018-03-17T11:24:15.338Z,101157.48
2018-03-17T11:26:42.853Z,101171.02
2018-03-17T11:29:10.412Z,101179.96
2018-03-17T11:31:38.515Z,101158.20
2018-03-17T11:34:06.037Z,101180.81
2018-03-17T11:36:33.563Z,101146.11
2018-03-17T11:39:01.078Z,101161.13
2018-03-17T11:41:28.619Z,101150.21
2018-03-17T11:43:56.141Z,101167.36
2018-03-17T11:46:23.641Z,101131.30
2018-03-17T11:48:51.146Z,101148.02
2018-03-17T11:51:18.665Z,101147.76
2018-03-17T11:53:46.357Z,101134.51
2018-03-17T11:56:13.929Z,101143.91
2018-03-17T11:58:41.492Z,101141.41
2018-03-17T12:01:09.137Z,101152.34
2018-03-17T12:03:36.650Z,101142.55
2018-03-17T12:06:04.258Z,101130.20
2018-03-17T12:08:31.812Z,101133.61
2018-03-17T12:10:59.318Z,101128.59
2018-03-17T12:13:26.830Z,101126.37
2018-03-17T12:15:54.364Z,101121.49
2018-03-17T12:18:21.865Z,101134.14
2018-03-17T12:20:49.376Z,101126.29
2018-03-17T12:23:16.905Z,101134.16
2018-03-17T12:25:44.421Z,101132.80
2018-03-17T12:28:12.000Z,101126.62
2018-03-17T12:30:39.514Z,101123.52
2018-03-17T12:33:07.072Z,101136.98
2018-03-17T12:35:34.596Z,101124.30
2018-03-17T12:38:02.123Z,101116.84
2018-03-17T12:40:29.713Z,101108.89
2018-03-17T12:42:57.264Z,101102.88
2018-03-17T12:45:24.805Z,101097.19
2018-03-17T12:47:52.381Z,101098.56
2018-03-17T12:50:19.906Z,101095.91
2018-03-17T12:52:47.489Z,101105.10
2018-03-17T12:55:15.040Z,101083.02
2018-03-17T12:57:42.563Z,101098.86
2018-03-17T13:00:10.102Z,101095.77
2018-03-17T13:02:37.616Z,101082.57
2018-03-17T13:05:05.136Z,101088.55
2018-03-17T13:07:32.663Z,101070.58
2018-03-17T13:10:00.221Z,101089.05
2018-03-17T13:12:27.858Z,101071.13
2018-03-17T13:14:55.464Z,101079.50
2018-03-17T13:17:22.996Z,101080.45
2018-03-17T13:19:50.558Z,101070.21
2018-03-17T13:22:18.075Z,101086.44
2018-03-17T13:24:45.681Z,101072.03
2018-03-17T13:27:25.063Z,101070.17
2018-03-17T13:29:52.678Z,101077.20
2018-03-17T13:32:31.974Z,101067.17
2018-03-17T13:34:59.582Z,101080.52
2018-03-17T13:37:38.019Z,101070.07
2018-03-17T13:40:17.426Z,101068.84
2018-03-17T13:42:44.966Z,101074.64
2018-03-17T13:45:12.557Z,101073.66
2018-03-17T13:47:40.211Z,101090.36
2018-03-17T13:50:07.746Z,101068.31
2018-03-17T13:52:35.338Z,101117.64
2018-03-17T13:55:02.866Z,101093.50
2018-03-17T13:57:30.391Z,101084.73
2018-03-17T13:59:57.916Z,101099.70
2018-03-17T14:02:25.441Z,101114.20
2018-03-17T14:04:52.971Z,101097.84
2018-03-17T14:07:20.590Z,101093.41
2018-03-17T14:09:48.102Z,101095.65
2018-03-17T14:12:15.710Z,101099.42
2018-03-17T14:14:43.223Z,101099.89
2018-03-17T14:17:10.797Z,101089.41
2018-03-17T14:19:38.327Z,101096.07
2018-03-17T14:22:05.881Z,101102.14
2018-03-17T14:24:33.503Z,101110.56
2018-03-17T14:27:01.021Z,101091.98
2018-03-17T14:29:28.622Z,101113.04
2018-03-17T14:31:56.189Z,101154.66
2018-03-17T14:34:23.717Z,101106.27
2018-03-17T14:36:51.237Z,101104.11
2018-03-17T14:39:18.764Z,101111.16
2018-03-17T14:41:46.294Z,101095.47
2018-03-17T14:44:13.830Z,101105.98
2018-03-17T14:46:41.360Z,101115.08
2018-03-17T14:49:08.898Z,101097.95
2018-03-17T14:51:36.427Z,101102.88
2018-03-17T14:54:03.956Z,101102.91
2018-03-17T14:56:31.482Z,101108.15
2018-03-17T14:58:59.026Z,101100.59
2018-03-17T15:01:26.550Z,101096.20
2018-03-17T15:03:54.088Z,101094.72
2018-03-17T15:06:21.608Z,101094.41
2018-03-17T15:08:49.147Z,101104.04
2018-03-17T15:11:16.670Z,101106.70
2018-03-17T15:13:44.228Z,101093.59
2018-03-17T15:16:11.778Z,101083.62
2018-03-17T15:18:39.345Z,101086.79
2018-03-17T15:21:06.862Z,101086.30
2018-03-17T15:23:34.368Z,101094.26
2018-03-17T15:26:01.876Z,101093.66
2018-03-17T15:28:29.401Z,101105.59
2018-03-17T15:30:56.934Z,101089.79
2018-03-17T15:33:24.460Z,101092.25
2018-03-17T15:35:51.966Z,101098.70
2018-03-17T15:38:19.485Z,101096.41
2018-03-17T15:40:47.050Z,101089.92
2018-03-17T15:43:14.590Z,101095.13
2018-03-17T15:45:42.130Z,101103.80
2018-03-17T15:48:09.694Z,101094.17
2018-03-17T15:50:37.288Z,101100.86
2018-03-17T15:53:04.834Z,101106.64
2018-03-17T15:55:32.365Z,101099.52
2018-03-17T15:57:59.895Z,101108.33
2018-03-17T16:00:27.423Z,101119.73
2018-03-17T16:02:54.944Z,101100.80
2018-03-17T16:05:22.543Z,101113.66
2018-03-17T16:07:50.065Z,101107.38
2018-03-17T16:10:17.713Z,101108.80
2018-03-17T16:12:45.198Z,101120.69
2018-03-17T16:15:12.715Z,101104.44
2018-03-17T16:17:40.349Z,101111.94
2018-03-17T16:20:07.906Z,101114.17
2018-03-17T16:22:35.433Z,101116.33
2018-03-17T16:25:02.948Z,101119.41
2018-03-17T16:27:30.468Z,101125.08
2018-03-17T16:29:58.042Z,101125.92
2018-03-17T16:32:25.570Z,101128.72
2018-03-17T16:34:53.107Z,101123.42
2018-03-17T16:37:20.647Z,101121.23
2018-03-17T16:39:48.183Z,101127.78
2018-03-17T16:42:15.709Z,101163.81
2018-03-17T16:44:43.406Z,101162.31
2018-03-17T16:47:10.930Z,101138.28
2018-03-17T16:49:38.510Z,101150.58
2018-03-17T16:52:06.292Z,101139.05
2018-03-17T16:54:33.819Z,101144.83
2018-03-17T16:57:01.343Z,101139.16
2018-03-17T16:59:28.966Z,101150.06
2018-03-17T17:01:56.500Z,101148.34
2018-03-17T17:04:24.091Z,101154.89
2018-03-17T17:06:51.618Z,101172.48
2018-03-17T17:09:19.132Z,101160.56
2018-03-17T17:11:46.664Z,101174.05
2018-03-17T17:14:14.182Z,101172.81
2018-03-17T17:16:41.865Z,101172.29
2018-03-17T17:19:09.385Z,101175.48
2018-03-17T17:21:37.010Z,101196.91
2018-03-17T17:24:04.553Z,101176.67
2018-03-17T17:26:32.116Z,101178.79
2018-03-17T17:28:59.685Z,101173.56
2018-03-17T17:31:27.213Z,101177.43
2018-03-17T17:33:54.762Z,101196.73
2018-03-17T17:36:22.299Z,101189.63
2018-03-17T17:38:49.930Z,101188.70
2018-03-17T17:41:17.458Z,101198.34
2018-03-17T17:43:45.037Z,101193.56
2018-03-17T17:46:13.663Z,101200.98
2018-03-17T17:48:41.181Z,101204.92
2018-03-17T17:51:08.726Z,101193.95
2018-03-17T17:53:36.245Z,101206.25
2018-03-17T17:56:03.775Z,101200.48
2018-03-17T17:58:31.302Z,101189.52
2018-03-17T18:00:58.838Z,101210.15
2018-03-17T18:03:26.536Z,101198.30
2018-03-17T18:05:54.100Z,101204.30
2018-03-17T18:08:21.621Z,101192.55
2018-03-17T18:10:49.162Z,101201.71
2018-03-17T18:13:16.696Z,101203.91
2018-03-17T18:15:44.224Z,101213.55
2018-03-17T18:18:11.743Z,101211.75
2018-03-17T18:20:39.389Z,101204.77
2018-03-17T18:23:06.906Z,101212.68
2018-03-17T18:25:34.500Z,101211.84
2018-03-17T18:28:02.025Z,101214.48
2018-03-17T18:30:29.581Z,101204.73
2018-03-17T18:32:57.111Z,101246.29
2018-03-17T18:35:24.651Z,101223.11
2018-03-17T18:37:52.228Z,101220.47
2018-03-17T18:40:19.855Z,101227.91
2018-03-17T18:42:47.378Z,101223.11
2018-03-17T18:45:14.972Z,101227.53
2018-03-17T18:47:42.532Z,101227.48
2018-03-17T18:50:10.093Z,101230.66
2018-03-17T18:52:37.652Z,101225.34
2018-03-17T18:55:05.212Z,101220.46
2018-03-17T18:57:32.743Z,101224.91
2018-03-17T19:00:00.292Z,101239.27
2018-03-17T19:02:27.858Z,101234.11
2018-03-17T19:04:55.390Z,101230.66
2018-03-17T19:07:22.920Z,101232.56
2018-03-17T19:09:50.435Z,101232.06
2018-03-17T19:12:18.008Z,101248.30
2018-03-17T19:14:45.589Z,101245.61
2018-03-17T19:17:13.118Z,101234.16
2018-03-17T19:19:40.645Z,101253.02
2018-03-17T19:22:08.222Z,101238.11
2018-03-17T19:24:35.764Z,101260.05
2018-03-17T19:27:03.388Z,101281.91
2018-03-17T19:29:30.918Z,101258.99
2018-03-17T19:31:58.518Z,101252.53
2018-03-17T19:34:26.038Z,101277.80
2018-03-17T19:36:53.552Z,101250.78
2018-03-17T19:39:21.082Z,101261.19
2018-03-17T19:41:48.617Z,101260.37
2018-03-17T19:44:16.267Z,101255.16
2018-03-17T19:46:43.723Z,101255.13
2018-03-17T19:49:11.325Z,101263.55
2018-03-17T19:51:38.990Z,101275.73
2018-03-17T19:54:06.506Z,101248.88
2018-03-17T19:56:34.042Z,101265.58
2018-03-17T21:20:58.526Z,101308.34
2018-03-17T21:23:26.053Z,101304.86
2018-03-17T21:25:53.577Z,101314.57
2018-03-17T21:28:21.109Z,101306.33
2018-03-17T21:30:48.640Z,101301.52
2018-03-17T21:33:16.161Z,101320.46
2018-03-17T21:35:43.668Z,101298.00
2018-03-17T21:38:11.198Z,101308.13
2018-03-17T21:40:38.735Z,101301.13
2018-03-17T21:43:06.282Z,101317.89
2018-03-17T21:45:33.805Z,101321.79
2018-03-17T21:48:01.341Z,101321.13
2018-03-17T21:50:29.179Z,101318.56
2018-03-17T21:52:56.706Z,101319.50
2018-03-17T21:55:24.256Z,101313.47
2018-03-17T21:57:51.782Z,101305.08
2018-03-17T22:00:19.320Z,101320.55
2018-03-17T22:02:46.841Z,101317.11
2018-03-17T22:05:14.360Z,101322.75
2018-03-17T22:07:41.891Z,101327.63
2018-03-17T22:10:09.485Z,101331.94
2018-03-17T22:12:37.011Z,101310.55
2018-03-17T22:15:04.528Z,101326.90
2018-03-17T22:17:32.058Z,101329.44
2018-03-17T22:19:59.589Z,101327.25
2018-03-17T22:22:27.118Z,101321.41
2018-03-17T22:24:54.646Z,101320.11
2018-03-17T22:27:22.188Z,101321.50
2018-03-17T22:29:49.727Z,101332.74
2018-03-17T22:32:17.260Z,101331.62
2018-03-17T22:34:44.792Z,101316.44
2018-03-17T22:37:12.315Z,101322.14
2018-03-17T22:39:39.835Z,101338.42
2018-03-17T22:42:07.370Z,101346.14
2018-03-17T22:44:34.885Z,101333.80
2018-03-17T22:47:02.419Z,101333.72
2018-03-17T22:49:29.938Z,101349.67
2018-03-17T22:51:57.450Z,101359.39
2018-03-17T22:54:24.970Z,101327.27
2018-03-17T22:56:52.505Z,101339.91
2018-03-17T22:59:20.025Z,101347.87
2018-03-17T23:01:47.549Z,101345.92
2018-03-17T23:04:15.074Z,101357.54
2018-03-17T23:06:42.601Z,101342.44
2018-03-17T23:09:10.118Z,101345.95
2018-03-17T23:11:37.666Z,101348.92
2018-03-17T23:14:05.205Z,101352.42
2018-03-17T23:16:32.755Z,101368.17
2018-03-17T23:19:00.268Z,101350.30
2018-03-17T23:21:27.801Z,101348.89
2018-03-17T23:23:55.321Z,101361.09
2018-03-17T23:26:22.877Z,101371.41
2018-03-17T23:28:50.394Z,101362.67
2018-03-17T23:31:17.947Z,101365.00
2018-03-17T23:33:45.486Z,101390.28
2018-03-17T23:36:13.046Z,101362.20
2018-03-17T23:38:40.566Z,101372.03
2018-03-17T23:41:08.085Z,101375.09
2018-03-17T23:43:35.623Z,101368.52
2018-03-17T23:46:03.142Z,101372.55
2018-03-17T23:48:30.652Z,101369.41
2018-03-17T23:50:58.232Z,101377.16
2018-03-17T23:53:25.755Z,101354.36
2018-03-17T23:55:53.274Z,101378.02
2018-03-17T23:58:20.792Z,101373.34
